CheckWX is a tool to help pilots better visualize weather data.  It is not intended as a substitute for an official pre-flight weather briefing.

12:20:39 UTC

KGPM METAR
Grand Prairie Municipal Airport
Grand Prairie, Texas, USA
Current

6 mins ago

KGPM 221215Z AUTO 07012KT 1 1/4SM OVC002 08/08 A2997 RMK AO2 T00750075
Observed
Feb-22 @ 12:15 UTC
Wind
  • 070° at 12 KTS
Visibility
1 1/4 SM
Flight Rules
LIFR
Cloud Levels
  • Overcast at 200' AGL
Temperature
C / 46°F
Dewpoint
C / 46°F
Humidity
100%
Altimeter
29.97" Hg
Pressure
1014.92 hPa
Previous

26 mins ago

KGPM 221155Z AUTO 09012G20KT 1SM OVC002 08/08 A2994 RMK AO2 70007 T00750075 10085 20075
Observed
Feb-22 @ 11:55 UTC
Wind
  • 090° at 12 KTS
  • Gusting to KTS
Visibility
1 SM
Flight Rules
LIFR
Cloud Levels
  • Overcast at 200' AGL
Temperature
C / 46°F
Dewpoint
C / 46°F
Humidity
100%
Altimeter
29.94" Hg
Pressure
1013.92 hPa
Previous

46 mins ago

KGPM 221135Z AUTO 10006G18KT 070V130 1 1/2SM OVC004 08/08 A2997 RMK AO2 T00750075
Observed
Feb-22 @ 11:35 UTC
Wind
  • 100° at 6 KTS
  • Gusting to KTS
Visibility
1 1/2 SM
Flight Rules
LIFR
Cloud Levels
  • Overcast at 400' AGL
Temperature
C / 46°F
Dewpoint
C / 46°F
Humidity
100%
Altimeter
29.97" Hg
Pressure
1014.92 hPa